Time;durP1;ratioP1;P1;durP2;ratioP2;P2;SDS_P1;SDS_P2;PMS_P1;PMS_P2;Temp;Humidity;BMP_temperature;BMP_pressure;BME280_temperature;BME280_humidity;BME280_pressure;Samples;Min_cycle;Max_cycle;Signal;HPM_P1;HPM_P2
2023/02/17 00:00:19;;;;;;;21.73;14.27;;;;;;;8.58;100.00;101898.31;10462886;28;20457;-68
2023/02/17 00:05:19;;;;;;;24.27;14.50;;;;;;;8.60;100.00;101896.28;10462970;28;20079;-68
2023/02/17 00:10:20;;;;;;;19.90;12.68;;;;;;;8.59;100.00;101901.84;10462139;28;20120;-68
2023/02/17 00:15:20;;;;;;;32.08;15.20;;;;;;;8.56;100.00;101908.41;10461311;28;20041;-68
2023/02/17 00:20:21;;;;;;;21.05;15.15;;;;;;;8.53;100.00;101889.81;10461768;28;20036;-68
2023/02/17 00:25:21;;;;;;;25.40;15.00;;;;;;;8.50;100.00;101887.44;10461005;28;20107;-68
2023/02/17 00:30:21;;;;;;;27.35;12.93;;;;;;;8.48;100.00;101878.66;10428550;28;20401;-68
2023/02/17 00:35:22;;;;;;;19.25;13.32;;;;;;;8.45;100.00;101897.03;10444161;28;20491;-68
2023/02/17 00:40:22;;;;;;;30.48;13.60;;;;;;;8.47;100.00;101882.38;10460361;28;20033;-69
2023/02/17 00:45:23;;;;;;;27.52;14.02;;;;;;;8.42;100.00;101884.69;10460171;28;20076;-69
2023/02/17 00:50:23;;;;;;;26.98;13.40;;;;;;;8.38;100.00;101880.63;10461178;28;20051;-69
2023/02/17 00:55:24;;;;;;;23.08;12.98;;;;;;;8.31;100.00;101884.94;10461295;28;20089;-68
2023/02/17 01:00:25;;;;;;;24.45;14.98;;;;;;;8.27;100.00;101888.97;10462261;28;20044;-69
2023/02/17 01:05:25;;;;;;;25.40;14.63;;;;;;;8.29;100.00;101886.94;10459998;28;20040;-69
2023/02/17 01:10:26;;;;;;;34.92;16.25;;;;;;;8.33;100.00;101891.03;10460039;28;20037;-69
2023/02/17 01:15:26;;;;;;;27.90;17.35;;;;;;;8.35;100.00;101887.13;10442762;28;20024;-69
2023/02/17 01:20:27;;;;;;;27.58;14.50;;;;;;;8.38;100.00;101904.91;10426133;28;20029;-69
2023/02/17 01:25:28;;;;;;;28.33;16.95;;;;;;;8.35;100.00;101878.19;10441860;28;20111;-69
2023/02/17 01:30:28;;;;;;;32.30;15.85;;;;;;;8.30;100.00;101861.66;10458978;28;20462;-69
2023/02/17 01:35:28;;;;;;;34.65;16.17;;;;;;;8.31;100.00;101857.94;10440344;28;20040;-69
2023/02/17 01:40:29;;;;;;;29.65;16.70;;;;;;;8.33;100.00;101858.66;10458569;28;20060;-69
2023/02/17 01:45:33;;;;;;;21.38;13.95;;;;;;;8.32;100.00;101855.06;10440596;28;20064;-69
2023/02/17 01:50:39;;;;;;;25.85;14.80;;;;;;;8.27;100.00;101854.72;10439769;28;20021;-69
2023/02/17 01:55:39;;;;;;;28.88;15.95;;;;;;;8.26;100.00;101860.25;10424247;28;20131;-69
2023/02/17 02:00:40;;;;;;;30.00;16.10;;;;;;;8.27;100.00;101856.59;10424360;28;20389;-69
2023/02/17 02:05:40;;;;;;;32.10;17.50;;;;;;;8.26;100.00;101847.59;10459025;28;20076;-69
2023/02/17 02:10:41;;;;;;;30.10;18.50;;;;;;;8.21;100.00;101841.03;10423534;28;20033;-69
2023/02/17 02:16:13;;;;;;;36.80;20.55;;;;;;;8.23;100.00;101850.66;10423176;28;20384;-69
2023/02/17 02:21:29;;;;;;;45.83;18.45;;;;;;;8.18;100.00;101844.03;10455715;28;20067;-69
2023/02/17 02:26:45;;;;;;;34.30;17.67;;;;;;;8.24;100.00;101832.59;10457234;28;20460;-69
2023/02/17 02:32:09;;;;;;;20.58;15.68;;;;;;;8.20;100.00;101836.59;10424648;28;20037;-67
2023/02/17 02:37:38;;;;;;;38.53;16.85;;;;;;;8.18;100.00;101819.75;10429128;28;20052;-68
2023/02/17 02:42:38;;;;;;;35.97;16.02;;;;;;;8.21;100.00;101817.56;10446213;28;20045;-66
2023/02/17 02:47:50;;;;;;;29.92;15.32;;;;;;;8.25;100.00;101815.41;10449463;28;20032;-66
2023/02/17 02:53:00;;;;;;;36.55;16.85;;;;;;;8.30;100.00;101807.69;10449690;28;20085;-67
2023/02/17 02:58:12;;;;;;;29.70;15.45;;;;;;;8.34;100.00;101799.09;10450248;28;20025;-68
2023/02/17 03:03:21;;;;;;;33.17;18.08;;;;;;;8.35;100.00;101772.94;10448499;28;20033;-66
2023/02/17 03:08:41;;;;;;;34.97;15.90;;;;;;;8.40;100.00;101776.06;10464661;28;20032;-67
2023/02/17 03:13:42;;;;;;;30.55;17.42;;;;;;;8.42;100.00;101774.03;10451297;28;20025;-67
2023/02/17 03:18:42;;;;;;;30.23;17.90;;;;;;;8.47;100.00;101768.16;10466624;28;20401;-66
2023/02/17 03:23:43;;;;;;;47.30;18.45;;;;;;;8.50;100.00;101760.56;10467551;28;20067;-67
2023/02/17 03:28:43;;;;;;;34.17;18.92;;;;;;;8.58;100.00;101757.91;10465759;28;20033;-66
2023/02/17 03:33:43;;;;;;;31.35;17.20;;;;;;;8.62;100.00;101780.03;10471095;28;20033;-66
2023/02/17 03:38:44;;;;;;;32.75;17.80;;;;;;;8.67;100.00;101785.75;10463990;28;20119;-66
2023/02/17 03:43:44;;;;;;;35.78;17.70;;;;;;;8.70;0.00;101779.63;10463083;28;20044;-67
2023/02/17 03:48:44;;;;;;;51.70;30.63;;;;;;;8.69;100.00;101788.31;10462761;28;20037;-66
2023/02/17 03:53:45;;;;;;;43.60;27.65;;;;;;;-145.97;100.00;101788.31;10464787;28;20142;-66
2023/02/17 03:58:45;;;;;;;40.67;24.02;;;;;;;8.76;100.00;101776.69;10445048;28;20037;-67
2023/02/17 04:03:46;;;;;;;30.85;15.13;;;;;;;8.79;100.00;101773.25;10463222;28;20087;-67
2023/02/17 04:08:46;;;;;;;30.42;15.32;;;;;;;8.78;100.00;101776.97;10444987;28;20413;-67
2023/02/17 04:13:46;;;;;;;25.10;15.27;;;;;;;8.84;100.00;101783.97;10463511;28;20063;-68
2023/02/17 04:18:47;;;;;;;37.17;18.55;;;;;;;8.85;100.00;101791.91;10462266;28;20033;-68
2023/02/17 04:23:47;;;;;;;37.40;18.67;;;;;;;8.88;100.00;101785.34;10462488;28;20036;-66
2023/02/17 04:28:48;;;;;;;33.55;15.75;;;;;;;8.90;100.00;101774.34;10460946;28;20159;-66
2023/02/17 04:33:48;;;;;;;41.60;15.77;;;;;;;8.94;100.00;101773.88;10442709;28;20029;-67
2023/02/17 04:38:48;;;;;;;33.97;14.48;;;;;;;8.98;100.00;101739.28;10427089;28;20095;-67
2023/02/17 04:43:49;;;;;;;30.40;13.68;;;;;;;8.98;100.00;101739.28;10441806;28;20066;-66
2023/02/17 04:48:49;;;;;;;31.00;16.08;;;;;;;9.07;100.00;101758.03;10425754;28;20038;-66
2023/02/17 04:53:50;;;;;;;36.25;16.13;;;;;;;9.10;100.00;101750.59;10441854;28;20057;-67
2023/02/17 04:58:50;;;;;;;31.98;18.00;;;;;;;9.06;100.00;101756.34;10458962;28;20076;-67
2023/02/17 05:03:50;;;;;;;44.65;20.08;;;;;;;9.06;100.00;101747.38;10458871;28;20036;-67
2023/02/17 05:08:52;;;;;;;31.52;17.60;;;;;;;9.15;100.00;101759.03;10459556;28;20029;-67
2023/02/17 05:13:53;;;;;;;41.63;17.10;;;;;;;9.10;100.00;101764.97;10458870;28;20099;-67
2023/02/17 05:18:53;;;;;;;30.92;17.63;;;;;;;9.10;100.00;101764.13;10458799;28;20045;-67
2023/02/17 05:23:54;;;;;;;39.20;18.25;;;;;;;9.08;100.00;101746.19;10440715;28;20033;-66
2023/02/17 05:28:54;;;;;;;30.35;17.65;;;;;;;9.12;100.00;101726.94;10457605;28;20044;-68
2023/02/17 05:33:54;;;;;;;29.38;19.08;;;;;;;9.10;100.00;101724.44;10458192;28;20041;-67
2023/02/17 05:38:55;;;;;;;29.52;19.05;;;;;;;9.13;100.00;101718.69;10457486;28;20067;-67
2023/02/17 05:43:55;;;;;;;27.98;17.80;;;;;;;9.18;100.00;101702.81;10457987;28;20104;-67
2023/02/17 05:48:55;;;;;;;24.25;16.50;;;;;;;9.24;100.00;101698.59;10458516;28;20044;-68
2023/02/17 05:53:56;;;;;;;21.08;13.70;;;;;;;9.32;100.00;101688.63;10456886;28;20041;-67
2023/02/17 05:58:56;;;;;;;22.52;11.57;;;;;;;9.33;100.00;101694.88;10422961;28;20107;-69
2023/02/17 06:03:57;;;;;;;20.70;14.07;;;;;;;9.40;100.00;101695.88;10422657;28;20029;-67
2023/02/17 06:08:57;;;;;;;28.05;14.35;;;;;;;9.44;100.00;101708.03;10456914;28;20041;-67
2023/02/17 06:13:58;;;;;;;25.25;14.73;;;;;;;9.43;100.00;101703.63;10422760;28;20028;-67
2023/02/17 06:19:01;;;;;;;23.55;15.40;;;;;;;9.41;100.00;101721.03;10438802;28;20033;-67
2023/02/17 06:24:01;;;;;;;28.13;13.20;;;;;;;9.36;100.00;101718.03;10457092;28;20033;-66
2023/02/17 06:29:02;;;;;;;25.75;14.55;;;;;;;9.35;100.00;101690.16;10422165;28;20499;-67
2023/02/17 06:34:02;;;;;;;20.63;13.32;;;;;;;9.31;100.00;101691.47;10438125;28;20033;-67
2023/02/17 06:39:03;;;;;;;31.98;13.90;;;;;;;9.31;100.00;101689.63;10456425;28;20041;-67
2023/02/17 06:44:03;;;;;;;22.58;13.07;;;;;;;9.31;100.00;101683.38;10456513;28;20033;-67
2023/02/17 06:49:04;;;;;;;30.65;13.73;;;;;;;9.31;100.00;101669.84;10455613;28;20045;-67
2023/02/17 06:54:04;;;;;;;24.77;12.88;;;;;;;9.40;100.00;101684.22;10455963;28;20060;-68
2023/02/17 06:59:05;;;;;;;26.73;13.05;;;;;;;9.40;100.00;101701.28;10438275;28;20373;-69
2023/02/17 07:04:05;;;;;;;20.83;12.38;;;;;;;9.32;100.00;101688.63;10437948;28;20045;-67
2023/02/17 07:09:06;;;;;;;28.48;13.20;;;;;;;9.37;100.00;101704.31;10429794;28;20092;-67
2023/02/17 07:14:06;;;;;;;17.42;11.93;;;;;;;9.32;100.00;101715.66;10446611;28;20059;-68
2023/02/17 07:19:06;;;;;;;18.02;10.23;;;;;;;9.29;100.00;101712.44;10445210;28;20535;-67
2023/02/17 07:24:07;;;;;;;12.38;9.55;;;;;;;9.29;100.00;101697.06;10464358;28;20061;-67
2023/02/17 07:29:07;;;;;;;28.30;12.50;;;;;;;9.28;100.00;101713.44;10460783;28;20033;-68
2023/02/17 07:34:08;;;;;;;17.25;11.20;;;;;;;9.23;100.00;101707.72;10462376;28;20052;-66
2023/02/17 07:39:08;;;;;;;16.02;9.77;;;;;;;9.24;100.00;101709.41;10463015;28;20143;-67
2023/02/17 07:44:09;;;;;;;14.77;9.27;;;;;;;9.21;100.00;101704.31;10462659;28;20033;-68
2023/02/17 07:49:09;;;;;;;10.25;7.47;;;;;;;9.25;100.00;101714.66;10463370;28;20040;-67
2023/02/17 07:54:12;;;;;;;16.02;9.15;;;;;;;9.24;100.00;101726.44;10444303;28;20497;-67
2023/02/17 07:59:13;;;;;;;19.90;9.95;;;;;;;9.29;100.00;101723.25;10463072;28;20036;-67
2023/02/17 08:04:13;;;;;;;9.90;7.85;;;;;;;9.34;100.00;101752.47;10461769;28;20453;-68
2023/02/17 08:14:32;;;;;;;15.77;9.93;;;;;;;9.35;100.00;101751.44;10461781;28;20461;-66
2023/02/17 08:19:33;;;;;;;11.45;8.57;;;;;;;9.40;100.00;101743.69;10460475;28;20036;-68
2023/02/17 08:24:33;;;;;;;18.30;11.15;;;;;;;9.38;100.00;101754.69;10461728;28;20503;-67
2023/02/17 08:29:34;;;;;;;29.05;7.40;;;;;;;9.39;100.00;101742.00;10428319;28;20523;-68
2023/02/17 08:34:34;;;;;;;17.40;8.32;;;;;;;9.42;100.00;101733.56;10464400;28;20075;-67
2023/02/17 08:39:35;;;;;;;18.80;9.68;;;;;;;9.43;100.00;101741.47;10467532;28;20037;-67
2023/02/17 08:44:36;;;;;;;27.60;9.43;;;;;;;9.54;100.00;101745.72;10464777;28;20037;-68
2023/02/17 08:49:36;;;;;;;17.90;8.23;;;;;;;9.67;100.00;101758.72;10480605;28;20330;-67
2023/02/17 08:54:37;;;;;;;16.23;8.45;;;;;;;9.72;100.00;101757.19;10479659;28;20052;-68
2023/02/17 08:59:37;;;;;;;19.00;8.23;;;;;;;9.60;100.00;101755.00;10480079;28;20071;-67
2023/02/17 09:04:38;;;;;;;19.08;6.97;;;;;;;9.52;100.00;101754.00;10465240;28;20076;-68
2023/02/17 09:09:38;;;;;;;16.30;7.03;;;;;;;9.56;100.00;101773.41;10464411;28;20060;-66
2023/02/17 09:14:38;;;;;;;13.48;7.05;;;;;;;9.74;100.00;101781.38;10480077;28;20033;-66
2023/02/17 09:19:39;;;;;;;17.40;9.15;;;;;;;9.85;100.00;101770.19;10478872;28;20099;-68
2023/02/17 09:24:40;;;;;;;8.85;7.28;;;;;;;9.80;100.00;101775.28;10445196;28;20067;-67
2023/02/17 09:29:40;;;;;;;8.15;6.63;;;;;;;9.93;100.00;101770.19;10463789;28;20059;-67
2023/02/17 09:34:48;;;;;;;8.32;6.22;;;;;;;9.94;100.00;101760.19;10444675;28;20040;-67
2023/02/17 09:39:48;;;;;;;9.23;5.97;;;;;;;9.96;100.00;101775.25;10461221;28;20040;-67
2023/02/17 09:44:53;;;;;;;9.77;6.40;;;;;;;10.11;100.00;101777.22;10443654;28;20036;-67
2023/02/17 09:49:56;;;;;;;9.60;5.93;;;;;;;10.16;100.00;101793.81;10461330;28;20032;-67
2023/02/17 09:55:12;;;;;;;10.27;6.45;;;;;;;10.29;100.00;101799.56;10443682;28;20045;-68
2023/02/17 10:00:15;;;;;;;20.73;8.10;;;;;;;10.29;100.00;101796.84;10474911;28;20481;-66
2023/02/17 10:05:17;;;;;;;9.55;5.90;;;;;;;10.33;100.00;101827.97;10457328;28;20347;-67
2023/02/17 10:10:21;;;;;;;14.90;6.53;;;;;;;10.23;100.00;101821.88;10477079;28;20043;-67
2023/02/17 10:15:27;;;;;;;9.73;6.78;;;;;;;10.30;100.00;101824.75;10473026;28;20029;-66
2023/02/17 10:20:50;;;;;;;14.38;5.60;;;;;;;10.34;100.00;101807.13;10474446;28;20036;-67
2023/02/17 10:26:09;;;;;;;9.77;6.70;;;;;;;10.27;100.00;101812.41;10472818;28;20461;-67
2023/02/17 10:31:43;;;;;;;15.25;6.78;;;;;;;10.35;100.00;101839.47;10457924;28;20033;-66
2023/02/17 10:36:50;;;;;;;13.30;5.78;;;;;;;10.33;100.00;101817.13;10457228;28;20037;-66
2023/02/17 10:41:51;;;;;;;14.75;6.40;;;;;;;10.25;100.00;101847.75;10469715;28;20437;-66
2023/02/17 10:46:52;;;;;;;15.90;7.20;;;;;;;10.22;100.00;101849.97;10487016;28;20032;-66
2023/02/17 10:51:52;;;;;;;13.90;6.43;;;;;;;10.27;100.00;101877.38;10451182;28;20067;-66
2023/02/17 10:56:53;;;;;;;18.75;7.85;;;;;;;10.15;100.00;101873.31;10451710;28;20463;-67
2023/02/17 11:02:24;;;;;;;23.15;7.65;;;;;;;10.05;100.00;101886.16;10470582;28;20043;-66
2023/02/17 11:07:40;;;;;;;20.02;5.97;;;;;;;10.05;100.00;101873.50;10470711;28;20039;-66
2023/02/17 11:12:41;;;;;;;15.60;7.63;;;;;;;10.02;100.00;101857.59;10467671;28;20037;-67
2023/02/17 11:17:41;;;;;;;8.68;7.32;;;;;;;9.94;100.00;101860.31;10470738;28;20460;-66
2023/02/17 11:22:46;;;;;;;21.70;8.23;;;;;;;10.05;100.00;101837.47;10467897;28;20036;-66
2023/02/17 11:27:57;;;;;;;16.88;7.03;;;;;;;10.02;100.00;101865.72;10468100;28;20029;-67
2023/02/17 11:32:57;;;;;;;11.43;7.57;;;;;;;10.05;100.00;101891.56;10467525;28;20033;-65
2023/02/17 11:38:02;;;;;;;10.98;7.93;;;;;;;10.12;100.00;101879.91;10450974;28;20033;-66
2023/02/17 11:43:03;;;;;;;17.60;7.75;;;;;;;10.10;100.00;101894.63;10450839;28;20033;-66
2023/02/17 11:48:30;;;;;;;15.73;7.47;;;;;;;10.06;100.00;101904.13;10450886;28;20037;-67
2023/02/17 11:53:46;;;;;;;14.93;8.45;;;;;;;10.22;100.00;101893.28;10454739;28;20084;-66
2023/02/17 11:59:13;;;;;;;32.63;10.93;;;;;;;10.30;100.00;101892.44;10460241;28;20029;-65
2023/02/17 12:04:35;;;;;;;31.13;10.77;;;;;;;10.29;100.00;101885.34;10443690;28;20041;-66
2023/02/17 12:09:47;;;;;;;19.98;7.50;;;;;;;10.33;100.00;101890.22;10429848;28;20082;-67
2023/02/17 12:15:07;;;;;;;27.25;7.40;;;;;;;10.37;100.00;101902.44;10460645;28;20033;-67
2023/02/17 12:20:34;;;;;;;26.58;8.88;;;;;;;10.27;100.00;101939.63;10476592;28;20037;-67
2023/02/17 12:26:09;;;;;;;26.77;9.77;;;;;;;10.30;100.00;101928.47;10458196;28;20047;-66
2023/02/17 12:31:41;;;;;;;27.58;8.65;;;;;;;10.20;100.00;101919.66;10459852;28;20480;-66
2023/02/17 12:36:41;;;;;;;36.88;7.78;;;;;;;10.04;100.00;101934.03;10460168;28;20381;-66
2023/02/17 12:41:47;;;;;;;20.35;6.82;;;;;;;10.00;100.00;101941.66;10475920;28;20041;-66
2023/02/17 12:47:24;;;;;;;15.90;8.37;;;;;;;9.97;100.00;101952.81;10458646;28;20029;-66
2023/02/17 12:52:27;;;;;;;35.60;10.23;;;;;;;9.92;100.00;101966.00;10466739;28;20049;-66
2023/02/17 12:57:56;;;;;;;27.52;8.13;;;;;;;9.90;100.00;101959.06;10424670;28;20055;-66
2023/02/17 13:02:58;;;;;;;31.48;6.32;;;;;;;9.96;100.00;101934.06;10459274;28;20036;-67
2023/02/17 13:08:13;;;;;;;15.45;7.20;;;;;;;10.22;100.00;101920.34;10441196;28;20457;-66
2023/02/17 13:13:30;;;;;;;10.23;6.30;;;;;;;10.42;100.00;101967.72;10474637;28;20139;-66
2023/02/17 13:18:41;;;;;;;30.88;6.00;;;;;;;10.50;100.00;101952.47;10459162;28;20025;-67
2023/02/17 13:23:43;;;;;;;24.13;6.75;;;;;;;10.60;100.00;101955.88;10457904;28;20036;-67
2023/02/17 13:28:43;;;;;;;17.45;5.38;;;;;;;10.62;100.00;101949.25;10423818;28;20020;-66
2023/02/17 13:33:49;;;;;;;24.42;8.52;;;;;;;10.69;100.00;101938.59;10458463;28;20029;-66
2023/02/17 13:38:55;;;;;;;15.85;6.45;;;;;;;10.80;100.00;101956.34;10460613;28;20037;-65
2023/02/17 13:43:55;;;;;;;16.92;7.13;;;;;;;10.97;100.00;101989.66;10474155;28;20056;-66
2023/02/17 13:49:01;;;;;;;20.33;7.80;;;;;;;10.84;100.00;101958.50;10458085;28;20068;-66
2023/02/17 13:54:06;;;;;;;19.77;7.75;;;;;;;10.79;100.00;101939.25;10472556;28;20495;-66
2023/02/17 13:59:17;;;;;;;22.80;7.75;;;;;;;10.72;100.00;101951.78;10457060;28;20029;-66
2023/02/17 14:04:20;;;;;;;16.10;5.05;;;;;;;10.71;100.00;101915.72;10439594;28;20412;-66
2023/02/17 14:09:29;;;;;;;23.63;7.38;;;;;;;10.63;100.00;101950.97;10456560;28;20087;-66
2023/02/17 14:14:35;;;;;;;31.58;7.60;;;;;;;10.48;100.00;101937.25;10438230;28;20420;-66
2023/02/17 14:19:44;;;;;;;23.77;8.82;;;;;;;10.52;100.00;101964.00;10438336;28;20037;-66
2023/02/17 14:24:44;;;;;;;17.95;6.05;;;;;;;10.63;100.00;101967.22;10439195;28;20033;-66
2023/02/17 14:29:46;;;;;;;10.32;6.07;;;;;;;10.73;100.00;101953.47;10438709;28;20358;-66
2023/02/17 14:34:46;;;;;;;25.25;7.07;;;;;;;10.61;100.00;101969.22;10438438;28;20155;-66
2023/02/17 14:39:47;;;;;;;17.17;6.50;;;;;;;10.77;100.00;101968.38;10471113;28;20044;-65
2023/02/17 14:44:47;;;;;;;18.35;6.93;;;;;;;10.79;100.00;101971.75;10457105;28;20056;-66
2023/02/17 14:49:48;;;;;;;21.45;6.13;;;;;;;10.67;100.00;101968.56;10438017;28;20052;-66
2023/02/17 14:54:48;;;;;;;22.58;8.30;;;;;;;10.75;100.00;101989.34;10455358;28;20098;-65
2023/02/17 14:59:49;;;;;;;18.45;6.22;;;;;;;10.92;100.00;101995.59;10455881;28;20421;-66
2023/02/17 15:04:49;;;;;;;29.73;7.72;;;;;;;11.04;100.00;101990.63;10455307;28;20044;-66
2023/02/17 15:09:49;;;;;;;21.20;6.22;;;;;;;10.89;100.00;101988.66;10437866;28;20064;-66
2023/02/17 15:14:50;;;;;;;29.08;8.15;;;;;;;10.85;100.00;101987.31;10470857;28;20060;-65
2023/02/17 15:19:50;;;;;;;21.80;7.10;;;;;;;10.77;100.00;101989.19;10438006;28;20044;-67
2023/02/17 15:24:51;;;;;;;17.55;7.25;;;;;;;10.80;100.00;102015.94;10455919;28;20029;-66
2023/02/17 15:29:51;;;;;;;20.13;7.95;;;;;;;10.66;100.00;102010.22;10462948;28;20497;-65
2023/02/17 15:34:58;;;;;;;26.38;9.05;;;;;;;10.40;100.00;101995.97;10445026;28;20033;-66
2023/02/17 15:39:59;;;;;;;22.67;7.47;;;;;;;10.19;100.00;102020.84;10461450;28;20021;-66
2023/02/17 15:44:59;;;;;;;30.52;6.90;;;;;;;10.05;100.00;102032.31;10463243;28;20075;-67
2023/02/17 15:49:59;;;;;;;23.02;7.78;;;;;;;10.01;100.00;102029.94;10478671;28;20059;-66
2023/02/17 15:55:00;;;;;;;20.85;6.45;;;;;;;9.85;100.00;102038.00;10463415;28;20549;-67
2023/02/17 16:00:00;;;;;;;18.30;8.00;;;;;;;9.81;100.00;102055.59;10463977;28;20033;-66
2023/02/17 16:05:00;;;;;;;17.75;7.43;;;;;;;9.76;100.00;102060.63;10478037;28;20067;-66
2023/02/17 16:10:01;;;;;;;39.00;8.73;;;;;;;9.63;100.00;102054.84;10462077;28;20143;-65
2023/02/17 16:15:02;;;;;;;23.70;8.18;;;;;;;9.55;100.00;102053.81;10476782;28;20056;-66
2023/02/17 16:20:03;;;;;;;23.83;7.32;;;;;;;9.57;100.00;102067.16;10476269;28;20037;-66
2023/02/17 16:25:04;;;;;;;22.48;6.63;;;;;;;9.47;100.00;102072.69;10460531;28;20135;-66
2023/02/17 16:30:21;;;;;;;30.63;7.90;;;;;;;9.36;100.00;102080.25;10460669;28;20128;-66
2023/02/17 16:35:22;;;;;;;;;;;;;;;9.37;100.00;102074.66;10477410;28;20159;-66
2023/02/17 16:40:24;;;;;;;19.40;6.15;;;;;;;9.29;100.00;102085.44;10459439;28;19916;-66
2023/02/17 16:45:29;;;;;;;27.33;8.55;;;;;;;9.34;100.00;102093.06;10460374;28;20029;-66
2023/02/17 16:50:33;;;;;;;27.27;8.30;;;;;;;9.35;100.00;102097.44;10475315;28;20111;-67
2023/02/17 16:55:34;;;;;;;30.50;7.57;;;;;;;9.43;100.00;102111.88;10474948;28;20102;-66
2023/02/17 17:00:34;;;;;;;32.58;7.95;;;;;;;9.48;100.00;102112.25;10475133;28;20483;-65
2023/02/17 17:05:35;;;;;;;30.30;6.93;;;;;;;9.49;100.00;102104.97;10459226;28;20029;-66
2023/02/17 17:10:39;;;;;;;28.13;6.43;;;;;;;9.50;100.00;102099.41;10460325;28;20029;-66
2023/02/17 17:15:43;;;;;;;30.23;8.52;;;;;;;9.46;100.00;102108.84;10441532;28;20025;-66
2023/02/17 17:20:44;;;;;;;17.35;7.90;;;;;;;9.49;100.00;102116.63;10459277;28;20052;-67
2023/02/17 17:25:45;;;;;;;21.27;7.97;;;;;;;9.49;100.00;102134.72;10440809;28;20044;-66
2023/02/17 17:30:45;;;;;;;25.65;9.35;;;;;;;9.40;100.00;102131.13;10473758;28;20215;-66
2023/02/17 17:35:46;;;;;;;41.65;15.75;;;;;;;9.38;100.00;102153.91;10474017;28;20080;-65
2023/02/17 17:40:50;;;;;;;32.85;16.80;;;;;;;9.33;100.00;102157.09;10458015;28;20086;-66
2023/02/17 17:45:51;;;;;;;46.10;11.15;;;;;;;9.28;100.00;102159.41;10440302;28;20047;-65
2023/02/17 17:50:51;;;;;;;23.00;6.80;;;;;;;9.31;100.00;102164.50;10439378;28;20104;-65
2023/02/17 17:55:52;;;;;;;39.25;8.45;;;;;;;9.34;100.00;102174.16;10456949;28;20080;-66
2023/02/17 18:00:53;;;;;;;22.13;7.55;;;;;;;9.34;100.00;102193.09;10457854;28;20102;-66
2023/02/17 18:05:53;;;;;;;14.30;5.90;;;;;;;9.38;100.00;102187.22;10458121;28;20063;-65
2023/02/17 18:10:54;;;;;;;22.05;6.43;;;;;;;9.34;100.00;102183.13;10456887;28;20062;-67
2023/02/17 18:15:54;;;;;;;33.83;9.40;;;;;;;9.35;100.00;102182.13;10457038;28;20425;-66
2023/02/17 18:20:54;;;;;;;20.50;7.22;;;;;;;9.40;100.00;102195.16;10440244;28;20041;-66
2023/02/17 18:25:55;;;;;;;17.20;6.45;;;;;;;9.58;100.00;102192.41;10455732;28;20477;-66
2023/02/17 18:30:55;;;;;;;17.13;6.57;;;;;;;9.61;100.00;102195.66;10456297;28;20041;-66
2023/02/17 18:35:56;;;;;;;17.98;7.57;;;;;;;9.65;100.00;102202.44;10456546;28;20115;-65
2023/02/17 18:40:56;;;;;;;23.25;7.50;;;;;;;9.69;100.00;102195.69;10456712;28;20459;-64
2023/02/17 18:45:56;;;;;;;21.40;6.85;;;;;;;9.73;100.00;102217.84;10473253;28;20047;-66
2023/02/17 18:50:57;;;;;;;18.98;5.90;;;;;;;9.82;100.00;102253.94;10438276;28;20029;-66
2023/02/17 18:55:57;;;;;;;22.75;8.43;;;;;;;9.95;100.00;102276.00;10455793;28;20064;-65
2023/02/17 19:00:58;;;;;;;30.05;10.93;;;;;;;9.88;100.00;102259.53;10456680;28;20029;-65
2023/02/17 19:06:00;;;;;;;26.15;8.75;;;;;;;9.96;100.00;102281.25;10446786;28;20044;-65
2023/02/17 19:11:00;;;;;;;29.02;11.13;;;;;;;9.99;100.00;102262.00;10462871;28;20177;-65
2023/02/17 19:16:09;;;;;;;30.23;9.75;;;;;;;10.00;100.00;102274.50;10464056;28;20520;-66
2023/02/17 19:21:09;;;;;;;35.83;10.10;;;;;;;9.94;100.00;102264.31;10446069;28;20044;-66
2023/02/17 19:26:10;;;;;;;31.60;8.77;;;;;;;9.98;100.00;102267.56;10463986;28;20477;-67
2023/02/17 19:31:14;;;;;;;25.65;8.98;;;;;;;9.95;100.00;102271.41;10463165;28;20075;-66
2023/02/17 19:36:16;;;;;;;24.02;8.43;;;;;;;9.98;100.00;102290.03;10477734;28;20029;-66
2023/02/17 19:41:17;;;;;;;31.20;11.25;;;;;;;9.96;100.00;102293.94;10477431;28;20037;-67
2023/02/17 19:46:19;;;;;;;32.00;10.32;;;;;;;9.91;100.00;102298.97;10427880;28;20053;-65
2023/02/17 19:51:20;;;;;;;38.35;9.57;;;;;;;9.90;100.00;102305.41;10463048;28;20033;-66
2023/02/17 19:56:22;;;;;;;32.83;11.23;;;;;;;9.92;100.00;102314.19;10443933;28;20107;-65
2023/02/17 20:01:24;;;;;;;37.40;11.25;;;;;;;9.94;100.00;102302.19;10461343;28;20124;-66
2023/02/17 20:06:26;;;;;;;34.88;10.20;;;;;;;9.98;100.00;102313.56;10444281;28;20082;-66
2023/02/17 20:11:27;;;;;;;32.35;9.63;;;;;;;9.99;100.00;102310.72;10443794;28;20033;-67
2023/02/17 20:16:27;;;;;;;32.67;9.80;;;;;;;10.02;100.00;102309.53;10442483;28;20401;-66
2023/02/17 20:21:29;;;;;;;16.90;9.77;;;;;;;9.97;100.00;102296.47;10461616;28;20037;-66
2023/02/17 20:26:31;;;;;;;16.90;9.95;;;;;;;10.01;100.00;102302.41;10461507;28;20036;-66
2023/02/17 20:31:34;;;;;;;31.95;9.30;;;;;;;10.00;100.00;102311.56;10461009;28;20037;-65
2023/02/17 20:36:34;;;;;;;31.30;10.32;;;;;;;10.00;100.00;102306.97;10476121;28;20032;-66
2023/02/17 20:41:35;;;;;;;30.80;9.75;;;;;;;9.92;100.00;102314.19;10461050;28;20052;-65
2023/02/17 20:46:35;;;;;;;27.27;11.27;;;;;;;9.85;100.00;102316.69;10460671;28;20029;-65
2023/02/17 20:51:35;;;;;;;26.63;10.20;;;;;;;9.90;100.00;102313.50;10461048;28;20048;-65
2023/02/17 20:56:37;;;;;;;23.33;8.93;;;;;;;9.93;100.00;102322.16;10442146;28;20443;-65
2023/02/17 21:01:40;;;;;;;29.17;10.90;;;;;;;9.95;100.00;102324.69;10475008;28;20552;-66
2023/02/17 21:06:41;;;;;;;30.98;10.35;;;;;;;9.94;100.00;102313.03;10459265;28;20033;-65
2023/02/17 21:11:42;;;;;;;39.35;9.68;;;;;;;9.98;100.00;102306.28;10459209;28;20036;-66
2023/02/17 21:16:43;;;;;;;29.20;9.50;;;;;;;10.03;100.00;102311.22;10458669;28;20488;-65
2023/02/17 21:21:43;;;;;;;32.20;10.57;;;;;;;10.03;100.00;102303.13;10458517;28;20029;-66
2023/02/17 21:26:44;;;;;;;16.70;9.27;;;;;;;10.08;100.00;102297.22;10458346;28;20449;-65
2023/02/17 21:31:44;;;;;;;22.65;7.70;;;;;;;10.09;100.00;102304.34;10459988;28;20041;-65
2023/02/17 21:36:44;;;;;;;29.60;11.35;;;;;;;10.12;100.00;102306.72;10458978;28;20041;-65
2023/02/17 21:41:45;;;;;;;23.70;10.98;;;;;;;10.15;100.00;102298.28;10459092;28;20093;-66
2023/02/17 21:46:45;;;;;;;39.00;9.18;;;;;;;10.12;100.00;102299.44;10458607;28;20457;-65
2023/02/17 21:51:46;;;;;;;26.75;8.50;;;;;;;10.09;100.00;102304.34;10458723;28;20048;-65
2023/02/17 21:56:46;;;;;;;25.83;10.60;;;;;;;10.06;100.00;102299.25;10460308;28;20110;-65
2023/02/17 22:01:46;;;;;;;22.98;9.48;;;;;;;10.07;100.00;102292.81;10458164;28;20033;-66
2023/02/17 22:06:47;;;;;;;39.47;10.15;;;;;;;10.08;100.00;102295.34;10472132;28;20044;-65
2023/02/17 22:11:48;;;;;;;25.30;9.57;;;;;;;10.15;100.00;102295.59;10458261;28;20094;-66
2023/02/17 22:16:48;;;;;;;25.20;8.30;;;;;;;10.14;100.00;102283.03;10456442;28;20029;-65
2023/02/17 22:21:49;;;;;;;28.35;9.52;;;;;;;10.17;100.00;102286.25;10439888;28;20041;-65
2023/02/17 22:26:49;;;;;;;38.38;13.60;;;;;;;10.19;100.00;102278.00;10456694;28;20112;-68
2023/02/17 22:31:54;;;;;;;27.92;8.52;;;;;;;10.12;100.00;102276.94;10438822;28;20037;-67
2023/02/17 22:36:54;;;;;;;31.27;10.48;;;;;;;10.11;100.00;102277.94;10456624;28;20029;-66
2023/02/17 22:41:55;;;;;;;31.02;12.27;;;;;;;10.10;100.00;102270.84;10456296;28;20119;-66
2023/02/17 22:46:55;;;;;;;38.80;10.32;;;;;;;10.11;100.00;102273.38;10457220;28;20037;-66
2023/02/17 22:51:56;;;;;;;30.60;9.98;;;;;;;10.09;100.00;102279.97;10439349;28;20041;-66